Time;durP1;ratioP1;P1;durP2;ratioP2;P2;SDS_P1;SDS_P2;PMS_P1;PMS_P2;Temp;Humidity;BMP_temperature;BMP_pressure;BME280_temperature;BME280_humidity;BME280_pressure;Samples;Min_cycle;Max_cycle;Signal;HPM_P1;HPM_P2
2021/10/02 00:35:11;;;;;;;7.00;4.18;;;;;17.80;100352.00;;;;4800259;29;20532;-73
2021/10/02 00:46:07;;;;;;;11.48;4.35;;;;;17.80;100364.00;;;;4797960;29;20050;-74
2021/10/02 00:48:40;;;;;;;9.75;4.13;;;;;17.70;100348.00;;;;4797147;29;20059;-75
2021/10/02 00:51:13;;;;;;;7.93;4.00;;;;;17.60;100363.00;;;;4797504;29;20526;-75
2021/10/02 00:53:43;;;;;;;10.18;3.85;;;;;17.60;100358.00;;;;4799915;29;20134;-75
2021/10/02 00:56:12;;;;;;;9.35;2.95;;;;;17.60;100353.00;;;;4799658;29;20046;-74
2021/10/02 00:58:48;;;;;;;9.52;2.92;;;;;17.50;100345.00;;;;4799498;29;20062;-74
2021/10/02 01:01:28;;;;;;;12.82;3.00;;;;;17.50;100339.00;;;;4783619;29;20062;-75
2021/10/02 01:04:03;;;;;;;10.30;2.47;;;;;17.50;100337.00;;;;4812203;29;20042;-75
2021/10/02 01:06:49;;;;;;;6.55;1.92;;;;;17.50;100353.00;;;;4817100;29;20060;-75
2021/10/02 01:09:34;;;;;;;5.00;2.20;;;;;17.50;100347.00;;;;4818274;29;20050;-75
2021/10/02 01:12:22;;;;;;;10.65;3.00;;;;;17.40;100350.00;;;;4817471;29;20046;-76
2021/10/02 01:15:00;;;;;;;7.78;2.85;;;;;17.40;100354.00;;;;4817995;29;20042;-75
2021/10/02 01:17:39;;;;;;;8.07;2.65;;;;;17.40;100375.00;;;;4818356;29;20491;-76
2021/10/02 01:20:35;;;;;;;11.10;2.65;;;;;17.40;100354.00;;;;4817578;29;20546;-76
2021/10/02 01:23:41;;;;;;;7.40;1.90;;;;;17.30;100374.00;;;;4818220;29;20042;-76
2021/10/02 01:26:13;;;;;;;6.32;1.83;;;;;17.30;100383.00;;;;4816839;29;20476;-75
2021/10/02 01:28:44;;;;;;;12.95;2.33;;;;;17.30;100360.00;;;;4817313;29;20069;-75
2021/10/02 01:31:31;;;;;;;7.07;2.85;;;;;17.20;100379.00;;;;4817876;29;20129;-75
2021/10/02 01:34:13;;;;;;;11.40;2.80;;;;;17.20;100366.00;;;;4817776;29;20046;-76
2021/10/02 01:48:16;;;;;;;11.70;2.58;;;;;17.00;100386.00;;;;4818069;29;20056;-76
2021/10/02 01:50:49;;;;;;;6.47;2.20;;;;;17.00;100386.00;;;;4817300;29;20404;-75
2021/10/02 01:53:21;;;;;;;10.80;2.30;;;;;16.90;100377.00;;;;4817940;29;20695;-75
2021/10/02 01:55:52;;;;;;;15.23;2.47;;;;;16.90;100378.00;;;;4817653;29;20417;-75
2021/10/02 01:58:24;;;;;;;7.68;2.55;;;;;16.90;100377.00;;;;4817467;29;20042;-76
2021/10/02 02:00:54;;;;;;;13.88;2.10;;;;;16.80;100363.00;;;;4817967;29;20506;-75
2021/10/02 02:03:24;;;;;;;7.85;2.47;;;;;16.80;100352.00;;;;4817368;29;20082;-75
2021/10/02 02:05:55;;;;;;;11.20;2.25;;;;;16.80;100367.00;;;;4817795;29;20073;-75
2021/10/02 02:08:27;;;;;;;8.37;2.37;;;;;16.70;100372.00;;;;4818280;29;20575;-76
2021/10/02 02:11:18;;;;;;;10.30;2.22;;;;;16.70;100354.00;;;;4817039;29;20695;-75
2021/10/02 02:13:48;;;;;;;11.02;2.17;;;;;16.70;100371.00;;;;4817768;29;20560;-75
2021/10/02 02:16:18;;;;;;;12.23;2.35;;;;;16.70;100364.00;;;;4817629;29;20051;-75
2021/10/02 02:18:48;;;;;;;7.72;2.03;;;;;16.60;100358.00;;;;4817070;29;20123;-75
2021/10/02 02:21:20;;;;;;;8.80;2.30;;;;;16.60;100352.00;;;;4817575;29;20050;-75
2021/10/02 02:23:49;;;;;;;;;;;;;16.60;100361.00;;;;4817436;29;20130;-76
2021/10/02 02:26:19;;;;;;;7.53;1.90;;;;;16.60;100362.00;;;;4817648;29;20026;-75
2021/10/02 02:28:50;;;;;;;11.02;2.45;;;;;16.60;100355.00;;;;4816947;29;20061;-75
2021/10/02 02:31:19;;;;;;;;;;;;;16.60;100355.00;;;;4817569;29;20706;-75
2021/10/02 02:33:49;;;;;;;6.13;1.95;;;;;16.60;100379.00;;;;4817243;29;19936;-75
2021/10/02 02:36:22;;;;;;;5.93;2.03;;;;;16.50;100347.00;;;;4817722;29;20059;-75
2021/10/02 02:38:52;;;;;;;6.95;1.90;;;;;16.60;100364.00;;;;4800410;29;20062;-76
2021/10/02 02:41:21;;;;;;;9.43;2.30;;;;;16.50;100355.00;;;;4816478;29;20047;-75
2021/10/02 02:43:51;;;;;;;251.43;78.40;;;;;16.50;100345.00;;;;4817185;29;20047;-76
2021/10/02 02:46:36;;;;;;;9.18;2.38;;;;;16.60;100340.00;;;;4819760;29;20046;-76
2021/10/02 02:49:12;;;;;;;9.50;2.30;;;;;16.60;100344.00;;;;4813583;29;20048;-76
2021/10/02 02:51:58;;;;;;;8.13;2.55;;;;;16.60;100365.00;;;;4820597;29;20061;-75
2021/10/02 02:54:34;;;;;;;9.10;2.38;;;;;16.50;100353.00;;;;4820410;29;20081;-75
2021/10/02 02:57:13;;;;;;;10.40;2.17;;;;;16.50;100348.00;;;;4819276;29;20061;-75
2021/10/02 03:00:07;;;;;;;11.68;2.60;;;;;16.40;100364.00;;;;4818999;29;20054;-75
2021/10/02 03:02:42;;;;;;;10.57;2.83;;;;;16.30;100364.00;;;;4816455;29;20154;-75
2021/10/02 03:05:14;;;;;;;11.95;3.05;;;;;16.30;100356.00;;;;4789324;29;20085;-76
2021/10/02 03:08:04;;;;;;;7.32;2.60;;;;;16.20;100368.00;;;;4819929;29;20081;-75
2021/10/02 03:10:34;;;;;;;7.35;2.13;;;;;16.20;100349.00;;;;4819449;29;20054;-76
2021/10/02 03:13:10;;;;;;;11.15;2.30;;;;;16.10;100350.00;;;;4819988;29;20061;-75
2021/10/02 03:15:42;;;;;;;10.68;2.72;;;;;16.00;100361.00;;;;4819928;29;20038;-75
2021/10/02 03:18:13;;;;;;;5.47;2.40;;;;;16.10;100359.00;;;;4820334;29;20452;-76
2021/10/02 03:20:44;;;;;;;10.00;2.20;;;;;16.10;100372.00;;;;4819482;29;20400;-75
2021/10/02 03:23:13;;;;;;;8.75;2.65;;;;;16.20;100355.00;;;;4819131;29;20054;-76
2021/10/02 03:25:45;;;;;;;6.15;2.35;;;;;16.30;100357.00;;;;4819977;29;20061;-76
2021/10/02 03:28:15;;;;;;;9.43;2.75;;;;;16.40;100373.00;;;;4819813;29;20055;-76
2021/10/02 03:30:45;;;;;;;8.45;2.70;;;;;16.40;100376.00;;;;4819600;29;20091;-77
2021/10/02 03:33:15;;;;;;;11.40;3.00;;;;;16.50;100356.00;;;;4820494;29;20050;-75
2021/10/02 03:35:47;;;;;;;10.43;2.60;;;;;16.40;100344.00;;;;4819386;29;20065;-75
2021/10/02 03:38:17;;;;;;;9.00;2.45;;;;;16.40;100337.00;;;;4820040;29;20127;-76
2021/10/02 03:40:46;;;;;;;11.43;2.40;;;;;16.30;100350.00;;;;4820272;29;20503;-76
2021/10/02 03:43:16;;;;;;;3.67;2.20;;;;;16.30;100357.00;;;;4818585;29;20468;-75
2021/10/02 03:45:46;;;;;;;7.80;2.75;;;;;16.30;100340.00;;;;4819510;29;20064;-76
2021/10/02 03:48:15;;;;;;;9.45;2.42;;;;;16.20;100333.00;;;;4819216;29;20054;-76
2021/10/02 03:50:45;;;;;;;11.77;3.05;;;;;16.20;100332.00;;;;4820616;29;20046;-76
2021/10/02 03:53:14;;;;;;;15.77;2.92;;;;;16.20;100334.00;;;;4820025;29;20521;-76
2021/10/02 03:55:44;;;;;;;8.95;2.40;;;;;16.10;100340.00;;;;4819933;29;20123;-76
2021/10/02 03:58:13;;;;;;;11.70;3.10;;;;;16.00;100322.00;;;;4818985;29;20054;-75
2021/10/02 04:00:42;;;;;;;7.60;2.20;;;;;16.00;100334.00;;;;4818888;29;20053;-75
2021/10/02 04:03:12;;;;;;;15.30;3.38;;;;;15.80;100326.00;;;;4819366;29;20103;-76
2021/10/02 04:05:42;;;;;;;14.35;2.72;;;;;15.70;100301.00;;;;4819409;29;20138;-75
2021/10/02 04:08:11;;;;;;;11.25;2.97;;;;;15.70;100300.00;;;;4819601;29;20057;-75
2021/10/02 04:10:40;;;;;;;16.50;2.63;;;;;15.50;100302.00;;;;4819020;29;20046;-75
2021/10/02 04:13:10;;;;;;;11.13;2.75;;;;;15.40;100299.00;;;;4818495;29;20522;-75
2021/10/02 04:15:39;;;;;;;8.18;2.42;;;;;15.30;100288.00;;;;4819182;29;20053;-76
2021/10/02 04:18:09;;;;;;;10.52;2.72;;;;;15.10;100279.00;;;;4818723;29;20511;-75
2021/10/02 04:20:38;;;;;;;11.30;2.60;;;;;15.00;100302.00;;;;4818670;29;20058;-75
2021/10/02 04:23:08;;;;;;;19.77;2.85;;;;;14.80;100290.00;;;;4818649;29;20476;-75
2021/10/02 04:25:37;;;;;;;10.00;3.20;;;;;14.80;100287.00;;;;4818270;29;20046;-76
2021/10/02 04:28:06;;;;;;;18.65;4.43;;;;;14.70;100279.00;;;;4819057;29;20095;-75
2021/10/02 04:30:36;;;;;;;11.73;2.92;;;;;14.60;100276.00;;;;4819393;29;20068;-75
2021/10/02 04:33:06;;;;;;;20.38;3.72;;;;;14.50;100280.00;;;;4819266;29;20050;-74
2021/10/02 04:35:35;;;;;;;15.43;3.45;;;;;14.50;100281.00;;;;4818603;29;20053;-75
2021/10/02 04:38:05;;;;;;;20.75;3.10;;;;;14.40;100267.00;;;;4818701;29;20054;-75
2021/10/02 04:40:35;;;;;;;13.88;2.85;;;;;14.30;100263.00;;;;4817218;29;20545;-75
2021/10/02 04:43:04;;;;;;;15.32;3.08;;;;;14.20;100264.00;;;;4818401;29;20058;-75
2021/10/02 04:45:34;;;;;;;17.83;3.75;;;;;14.20;100249.00;;;;4818357;29;20051;-75
2021/10/02 04:48:04;;;;;;;16.45;3.30;;;;;14.20;100264.00;;;;4818666;29;20051;-75
2021/10/02 04:50:33;;;;;;;21.15;3.65;;;;;14.10;100248.00;;;;4818332;29;20112;-76
2021/10/02 04:53:03;;;;;;;18.27;3.13;;;;;14.00;100260.00;;;;4818055;29;20123;-76
2021/10/02 04:55:32;;;;;;;13.65;3.22;;;;;13.90;100232.00;;;;4818611;29;20119;-75
2021/10/02 04:58:01;;;;;;;22.38;3.63;;;;;13.90;100233.00;;;;4818012;29;20119;-75
2021/10/02 05:00:31;;;;;;;24.33;3.50;;;;;13.80;100234.00;;;;4817746;29;20058;-75
2021/10/02 05:03:03;;;;;;;25.63;3.67;;;;;13.70;100221.00;;;;4818218;29;20058;-75
2021/10/02 05:05:33;;;;;;;16.30;3.55;;;;;13.80;100234.00;;;;4818644;29;20046;-75
2021/10/02 05:08:03;;;;;;;21.48;3.92;;;;;13.80;100237.00;;;;4818025;29;20516;-77
2021/10/02 05:10:33;;;;;;;22.17;3.83;;;;;13.70;100232.00;;;;4817600;29;20086;-75
2021/10/02 05:13:03;;;;;;;18.85;3.65;;;;;13.70;100227.00;;;;4817822;29;20085;-75
2021/10/02 05:15:33;;;;;;;16.88;3.10;;;;;13.70;100217.00;;;;4817654;29;20065;-74
2021/10/02 05:18:03;;;;;;;17.60;4.05;;;;;13.60;100219.00;;;;4818105;29;20050;-75
2021/10/02 05:20:32;;;;;;;12.38;3.20;;;;;13.60;100216.00;;;;4818392;29;20528;-74
2021/10/02 05:23:02;;;;;;;14.38;3.42;;;;;13.50;100212.00;;;;4817793;29;20057;-74
2021/10/02 05:25:31;;;;;;;15.80;3.95;;;;;13.50;100210.00;;;;4818360;29;20042;-74
2021/10/02 05:28:02;;;;;;;19.60;3.70;;;;;13.50;100216.00;;;;4818159;29;20046;-75
2021/10/02 05:30:32;;;;;;;20.77;3.83;;;;;13.40;100229.00;;;;4801618;29;20444;-75
2021/10/02 05:33:05;;;;;;;22.83;3.70;;;;;13.40;100214.00;;;;4817749;29;20062;-76
2021/10/02 05:35:36;;;;;;;16.75;4.18;;;;;13.40;100218.00;;;;4818049;29;20042;-76
2021/10/02 05:38:06;;;;;;;22.58;3.75;;;;;13.40;100231.00;;;;4817702;29;20103;-75
2021/10/02 05:40:35;;;;;;;23.05;3.90;;;;;13.30;100229.00;;;;4817488;29;20092;-76
2021/10/02 05:43:04;;;;;;;18.25;4.03;;;;;13.30;100200.00;;;;4817814;29;20063;-76
2021/10/02 05:45:34;;;;;;;15.70;2.97;;;;;13.30;100206.00;;;;4817934;29;20054;-76
2021/10/02 05:48:03;;;;;;;17.25;3.45;;;;;13.40;100210.00;;;;4816579;29;20282;-76
2021/10/02 05:50:33;;;;;;;13.43;3.20;;;;;13.30;100217.00;;;;4818440;29;20058;-76
2021/10/02 05:53:02;;;;;;;25.23;3.95;;;;;13.20;100202.00;;;;4817556;29;20054;-76
2021/10/02 05:55:33;;;;;;;27.10;4.00;;;;;13.30;100189.00;;;;4818148;29;20498;-76
2021/10/02 05:58:03;;;;;;;19.92;3.97;;;;;13.20;100209.00;;;;4801313;29;20050;-75
2021/10/02 06:00:32;;;;;;;16.38;3.47;;;;;13.10;100206.00;;;;4817469;29;20058;-76
2021/10/02 06:03:02;;;;;;;21.20;3.53;;;;;13.00;100214.00;;;;4817180;29;20051;-76
2021/10/02 06:05:31;;;;;;;18.30;3.47;;;;;13.00;100215.00;;;;4817372;29;20054;-76
2021/10/02 06:08:01;;;;;;;24.52;3.40;;;;;12.90;100197.00;;;;4817336;29;20422;-76
2021/10/02 06:10:30;;;;;;;29.75;4.18;;;;;12.90;100204.00;;;;4817315;29;20062;-75
2021/10/02 06:13:00;;;;;;;22.15;4.20;;;;;12.90;100215.00;;;;4817339;29;20482;-75
2021/10/02 06:15:29;;;;;;;25.80;4.38;;;;;13.00;100217.00;;;;4817795;29;20096;-76
2021/10/02 06:17:59;;;;;;;21.02;3.65;;;;;13.10;100219.00;;;;4816887;29;20056;-76
2021/10/02 06:20:28;;;;;;;28.08;16.38;;;;;13.20;100218.00;;;;4818646;29;20050;-75
2021/10/02 06:22:58;;;;;;;27.13;4.15;;;;;13.30;100214.00;;;;4820406;29;20057;-76
2021/10/02 06:25:28;;;;;;;28.58;3.63;;;;;13.40;100237.00;;;;4820080;29;20058;-76
2021/10/02 06:27:57;;;;;;;18.30;3.58;;;;;13.40;100225.00;;;;4820659;29;20050;-76
2021/10/02 06:30:26;;;;;;;21.45;3.95;;;;;13.50;100218.00;;;;4819756;29;20061;-76
2021/10/02 06:32:56;;;;;;;23.00;4.50;;;;;13.60;100209.00;;;;4820391;29;20058;-75
2021/10/02 06:35:25;;;;;;;13.88;3.45;;;;;13.70;100224.00;;;;4819269;29;20601;-76
2021/10/02 06:37:57;;;;;;;26.05;3.70;;;;;13.80;100217.00;;;;4821059;29;20050;-76
2021/10/02 06:40:28;;;;;;;27.08;4.47;;;;;13.80;100213.00;;;;4820671;29;20038;-76
2021/10/02 06:42:57;;;;;;;19.17;4.05;;;;;13.90;100222.00;;;;4820426;29;20054;-76
2021/10/02 06:45:26;;;;;;;23.27;3.90;;;;;13.90;100226.00;;;;4820583;29;20054;-76
2021/10/02 06:47:56;;;;;;;20.08;4.07;;;;;14.00;100263.00;;;;4820643;29;20050;-76
2021/10/02 06:50:25;;;;;;;14.32;3.97;;;;;14.10;100247.00;;;;4820324;29;20091;-76
2021/10/02 06:52:55;;;;;;;12.65;3.55;;;;;14.20;100263.00;;;;4820559;29;20086;-76
2021/10/02 06:55:24;;;;;;;22.08;4.72;;;;;14.20;100278.00;;;;4820678;29;20104;-76
2021/10/02 06:57:53;;;;;;;17.40;3.95;;;;;14.20;100263.00;;;;4820284;29;20061;-76
2021/10/02 07:00:23;;;;;;;12.73;3.33;;;;;14.20;100269.00;;;;4820537;29;20538;-76
2021/10/02 07:02:52;;;;;;;20.67;3.72;;;;;14.30;100260.00;;;;4820357;29;20058;-76
2021/10/02 07:05:22;;;;;;;17.67;4.63;;;;;14.30;100269.00;;;;4820340;29;20058;-76
2021/10/02 07:07:51;;;;;;;19.77;3.50;;;;;14.30;100282.00;;;;4819629;29;20054;-76
2021/10/02 07:10:21;;;;;;;22.27;4.10;;;;;14.30;100269.00;;;;4819626;29;20047;-76
2021/10/02 07:12:53;;;;;;;6.50;1.75;;;;;14.30;100287.00;;;;4819666;29;20089;-76
2021/10/02 07:15:23;;;;;;;6.60;2.22;;;;;14.30;100285.00;;;;4819988;29;20043;-76
2021/10/02 07:17:52;;;;;;;9.18;2.13;;;;;14.40;100303.00;;;;4819752;29;20054;-75
2021/10/02 07:20:31;;;;;;;9.07;2.45;;;;;14.40;100280.00;;;;4819577;29;20150;-76
2021/10/02 07:23:01;;;;;;;10.00;1.98;;;;;14.40;100284.00;;;;4820053;29;20419;-75
2021/10/02 07:25:30;;;;;;;10.40;1.83;;;;;14.40;100284.00;;;;4819478;29;20066;-76
2021/10/02 07:28:00;;;;;;;12.10;2.30;;;;;14.50;100301.00;;;;4819674;29;20054;-76
2021/10/02 07:30:29;;;;;;;8.95;1.85;;;;;14.50;100288.00;;;;4819557;29;20058;-75
2021/10/02 07:32:58;;;;;;;7.07;1.63;;;;;14.50;100287.00;;;;4818923;29;20069;-75
2021/10/02 07:35:28;;;;;;;7.20;1.77;;;;;14.50;100291.00;;;;4819618;29;20098;-75
2021/10/02 07:37:57;;;;;;;8.68;1.67;;;;;14.50;100295.00;;;;4819833;29;20058;-76
2021/10/02 07:40:27;;;;;;;11.73;2.10;;;;;14.50;100276.00;;;;4819500;29;20062;-76
2021/10/02 07:42:59;;;;;;;5.82;1.70;;;;;14.50;100270.00;;;;4817910;29;20454;-75
2021/10/02 07:45:29;;;;;;;4.80;1.50;;;;;14.50;100288.00;;;;4819585;29;20056;-76
2021/10/02 07:48:00;;;;;;;11.02;1.75;;;;;14.50;100286.00;;;;4819507;29;20115;-76
2021/10/02 07:50:29;;;;;;;;;;;;;14.50;100307.00;;;;4820206;29;20050;-76
2021/10/02 07:52:59;;;;;;;5.90;1.95;;;;;14.60;100313.00;;;;4819054;29;19928;-76
2021/10/02 07:55:29;;;;;;;8.63;1.90;;;;;14.60;100303.00;;;;4819469;29;20050;-75
2021/10/02 07:57:58;;;;;;;9.88;2.00;;;;;14.60;100318.00;;;;4818934;29;20054;-76
2021/10/02 08:00:28;;;;;;;7.53;2.03;;;;;14.50;100314.00;;;;4819498;29;20066;-76
2021/10/02 08:02:57;;;;;;;9.95;2.55;;;;;14.50;100325.00;;;;4819555;29;20530;-76
2021/10/02 08:05:27;;;;;;;5.15;1.67;;;;;14.50;100323.00;;;;4819375;29;20133;-76
2021/10/02 08:07:56;;;;;;;7.63;1.50;;;;;14.60;100347.00;;;;4818882;29;20038;-76
2021/10/02 08:10:27;;;;;;;5.18;1.60;;;;;14.60;100344.00;;;;4818869;29;20532;-75
2021/10/02 08:12:57;;;;;;;6.82;1.58;;;;;14.70;100351.00;;;;4818975;29;20534;-76
2021/10/02 08:15:27;;;;;;;5.78;1.65;;;;;14.70;100366.00;;;;4818866;29;20050;-76
2021/10/02 08:18:00;;;;;;;6.80;1.70;;;;;14.60;100354.00;;;;4819055;29;20065;-76
2021/10/02 08:20:30;;;;;;;12.52;2.30;;;;;14.70;100366.00;;;;4819411;29;20045;-76
2021/10/02 08:23:01;;;;;;;9.68;2.00;;;;;14.70;100360.00;;;;4818887;29;20055;-76
2021/10/02 08:25:32;;;;;;;6.85;1.80;;;;;14.60;100364.00;;;;4818685;29;20061;-75
2021/10/02 08:28:05;;;;;;;5.30;1.15;;;;;14.60;100381.00;;;;4819678;29;20054;-76
2021/10/02 08:30:35;;;;;;;5.95;1.52;;;;;14.60;100374.00;;;;4818851;29;20043;-75
2021/10/02 08:33:07;;;;;;;8.55;1.73;;;;;14.60;100394.00;;;;4818855;29;20054;-76
2021/10/02 08:35:37;;;;;;;4.07;1.23;;;;;14.50;100388.00;;;;4818685;29;20423;-76
2021/10/02 08:38:07;;;;;;;8.02;2.22;;;;;14.60;100387.00;;;;4818952;29;20059;-76
2021/10/02 08:40:38;;;;;;;9.68;1.65;;;;;14.60;100373.00;;;;4819099;29;20058;-75
2021/10/02 08:43:14;;;;;;;10.18;1.25;;;;;14.60;100368.00;;;;4816984;29;20145;-76
2021/10/02 08:45:43;;;;;;;4.90;1.30;;;;;14.60;100374.00;;;;4817262;29;20419;-76
2021/10/02 08:48:15;;;;;;;6.80;1.75;;;;;14.50;100367.00;;;;4817998;29;20050;-76
2021/10/02 08:50:45;;;;;;;;;;;;;14.50;100374.00;;;;4818688;29;20518;-76
2021/10/02 08:53:15;;;;;;;5.63;1.38;;;;;14.50;100375.00;;;;4818738;29;20005;-75
2021/10/02 08:55:45;;;;;;;10.15;1.65;;;;;14.50;100377.00;;;;4819259;29;20519;-76
2021/10/02 08:58:17;;;;;;;7.30;1.67;;;;;14.50;100375.00;;;;4818689;29;20058;-77
2021/10/02 09:00:47;;;;;;;15.00;3.20;;;;;14.50;100364.00;;;;4818165;29;20137;-76
2021/10/02 09:03:16;;;;;;;11.88;2.70;;;;;14.60;100364.00;;;;4818342;29;20057;-76
2021/10/02 09:05:46;;;;;;;13.52;3.63;;;;;14.70;100366.00;;;;4818029;29;20588;-76
2021/10/02 09:08:16;;;;;;;13.10;2.42;;;;;14.70;100381.00;;;;4817082;29;21215;-76
2021/10/02 09:10:45;;;;;;;12.20;2.35;;;;;14.70;100388.00;;;;4818673;29;20061;-76
2021/10/02 09:13:14;;;;;;;14.23;2.38;;;;;14.60;100397.00;;;;4816677;29;20092;-76
2021/10/02 09:15:44;;;;;;;9.10;2.45;;;;;14.60;100395.00;;;;4816868;29;20057;-75
2021/10/02 09:18:13;;;;;;;10.82;2.20;;;;;14.60;100392.00;;;;4818431;29;20053;-76
2021/10/02 09:20:43;;;;;;;11.93;2.33;;;;;14.60;100396.00;;;;4818410;29;20518;-77
2021/10/02 09:23:12;;;;;;;11.00;2.30;;;;;14.70;100411.00;;;;4817099;29;20058;-76
2021/10/02 09:25:48;;;;;;;22.40;3.53;;;;;14.70;100406.00;;;;4817745;29;20061;-76
2021/10/02 09:28:18;;;;;;;12.50;2.55;;;;;14.80;100432.00;;;;4817774;29;20047;-76
2021/10/02 09:30:50;;;;;;;9.02;2.38;;;;;14.80;100432.00;;;;4818062;29;20055;-76
2021/10/02 09:33:20;;;;;;;8.82;2.28;;;;;14.80;100427.00;;;;4817653;29;20115;-76
2021/10/02 09:35:51;;;;;;;8.68;1.98;;;;;14.90;100434.00;;;;4818142;29;20054;-76
2021/10/02 09:38:21;;;;;;;10.07;2.47;;;;;14.80;100418.00;;;;4817693;29;20107;-76
2021/10/02 09:40:57;;;;;;;12.52;2.08;;;;;14.90;100401.00;;;;4818102;29;20050;-76
2021/10/02 09:43:28;;;;;;;6.30;1.85;;;;;14.90;100399.00;;;;4817913;29;20058;-76
2021/10/02 09:45:58;;;;;;;10.23;2.10;;;;;15.00;100394.00;;;;4817002;29;20087;-76
2021/10/02 09:48:31;;;;;;;8.10;1.88;;;;;15.00;100408.00;;;;4817366;29;20054;-77
2021/10/02 09:51:06;;;;;;;8.38;2.40;;;;;15.10;100414.00;;;;4816079;29;20082;-76
2021/10/02 09:53:40;;;;;;;7.72;2.00;;;;;15.10;100417.00;;;;4816766;29;20123;-76
2021/10/02 09:56:12;;;;;;;9.23;2.22;;;;;15.20;100398.00;;;;4815636;29;20485;-76
2021/10/02 09:58:42;;;;;;;10.30;2.22;;;;;15.30;100413.00;;;;4816825;29;20138;-76
2021/10/02 10:01:25;;;;;;;11.45;2.28;;;;;15.30;100411.00;;;;4815089;29;20054;-76
2021/10/02 10:03:55;;;;;;;8.18;1.85;;;;;15.40;100413.00;;;;4817311;29;20140;-76
2021/10/02 10:06:28;;;;;;;10.85;2.30;;;;;15.50;100424.00;;;;4817053;29;20054;-76
2021/10/02 10:09:12;;;;;;;6.97;2.38;;;;;15.70;100415.00;;;;4817523;29;20042;-76
2021/10/02 10:11:50;;;;;;;20.13;3.85;;;;;15.80;100424.00;;;;4817076;29;20046;-77
2021/10/02 10:14:22;;;;;;;10.23;2.25;;;;;15.90;100414.00;;;;4815984;29;20062;-77
2021/10/02 10:16:55;;;;;;;6.25;1.83;;;;;16.00;100427.00;;;;4818240;29;20050;-76
2021/10/02 10:19:28;;;;;;;6.43;1.85;;;;;17.00;100403.00;;;;4817459;29;20110;-76
2021/10/02 10:22:14;;;;;;;14.23;3.33;;;;;17.90;100336.00;;;;4817156;29;20540;-77
2021/10/02 10:24:59;;;;;;;11.80;2.97;;;;;20.00;100379.00;;;;4817573;29;20046;-79
2021/10/02 10:27:35;;;;;;;7.07;2.10;;;;;19.20;100394.00;;;;4817690;29;20510;-78
2021/10/02 10:30:13;;;;;;;9.98;2.20;;;;;17.90;100418.00;;;;4817298;29;20129;-76
2021/10/02 10:33:00;;;;;;;7.55;2.03;;;;;20.30;100319.00;;;;4816905;29;20050;-77
2021/10/02 10:35:37;;;;;;;3.80;1.65;;;;;21.30;100297.00;;;;4816291;29;20054;-77
2021/10/02 10:38:09;;;;;;;10.27;2.30;;;;;23.90;100223.00;;;;4818608;29;20074;-76
2021/10/02 10:40:40;;;;;;;7.15;1.88;;;;;25.20;100223.00;;;;4817499;29;20074;-77
2021/10/02 10:43:10;;;;;;;3.00;1.05;;;;;25.80;100209.00;;;;4817041;29;20169;-76
2021/10/02 10:45:40;;;;;;;5.03;1.70;;;;;26.20;100293.00;;;;4817155;29;20050;-77
2021/10/02 10:48:11;;;;;;;9.05;1.83;;;;;22.80;100291.00;;;;4816803;29;20046;-75
2021/10/02 10:50:44;;;;;;;0.10;0.10;;;;;24.30;100220.00;;;;4817467;29;20042;-74
2021/10/02 10:53:15;;;;;;;0.15;0.00;;;;;25.50;100155.00;;;;4816737;29;20423;-76
2021/10/02 10:55:54;;;;;;;7.75;1.95;;;;;26.70;100186.00;;;;4801313;29;20047;-76
2021/10/02 10:58:27;;;;;;;9.55;2.20;;;;;27.10;100190.00;;;;4817038;29;20053;-74
2021/10/02 11:00:58;;;;;;;6.35;2.10;;;;;26.60;100188.00;;;;4816805;29;20053;-74
2021/10/02 11:03:44;;;;;;;5.63;1.80;;;;;27.30;100213.00;;;;4800293;29;20576;-74
2021/10/02 11:06:18;;;;;;;6.95;2.40;;;;;26.80;100236.00;;;;4816888;29;20038;-76
2021/10/02 11:09:06;;;;;;;6.63;1.80;;;;;26.40;100232.00;;;;4820167;29;20091;-75
2021/10/02 11:11:49;;;;;;;114.95;41.05;;;;;22.50;100336.00;;;;4819511;29;20043;-75
2021/10/02 11:14:22;;;;;;;5.43;1.80;;;;;20.80;100354.00;;;;4820432;29;20058;-73
2021/10/02 11:17:04;;;;;;;19.15;17.83;;;;;20.30;100358.00;;;;4820287;29;20080;-74
2021/10/02 11:19:44;;;;;;;3.53;2.55;;;;;20.40;100322.00;;;;4819897;29;20050;-74
2021/10/02 11:22:43;;;;;;;5.85;1.50;;;;;23.50;100238.00;;;;4803746;29;20050;-75
2021/10/02 11:25:23;;;;;;;3.95;1.33;;;;;21.30;100367.00;;;;4820126;29;20053;-74
2021/10/02 11:27:53;;;;;;;4.32;1.70;;;;;24.10;100225.00;;;;4820013;29;20511;-74
2021/10/02 11:30:22;;;;;;;4.90;1.58;;;;;25.60;100219.00;;;;4819554;29;20066;-76
2021/10/02 11:32:52;;;;;;;2.72;1.25;;;;;25.90;100228.00;;;;4818770;29;20055;-75
2021/10/02 11:35:34;;;;;;;4.60;1.55;;;;;26.60;100246.00;;;;4819855;29;20061;-77
2021/10/02 11:38:07;;;;;;;4.60;3.65;;;;;26.30;100222.00;;;;4819014;29;20062;-74
2021/10/02 11:40:36;;;;;;;26.27;22.27;;;;;26.80;100221.00;;;;4819665;29;20054;-73
2021/10/02 11:43:19;;;;;;;5.32;1.60;;;;;27.80;100238.00;;;;4818996;29;20062;-77
2021/10/02 11:45:51;;;;;;;4.07;1.45;;;;;28.10;100228.00;;;;4819750;29;20066;-74
2021/10/02 11:48:42;;;;;;;6.28;2.13;;;;;27.20;100233.00;;;;4819291;29;20046;-77
2021/10/02 11:51:29;;;;;;;4.20;1.50;;;;;28.00;100218.00;;;;4820091;29;20050;-74
2021/10/02 11:54:20;;;;;;;7.70;1.60;;;;;27.70;100228.00;;;;4819401;29;20051;-74
2021/10/02 11:57:14;;;;;;;5.20;1.65;;;;;28.50;100220.00;;;;4819334;29;20517;-77
2021/10/02 11:59:47;;;;;;;5.25;1.42;;;;;27.90;100226.00;;;;4818807;29;20085;-73
2021/10/02 12:02:17;;;;;;;5.47;1.60;;;;;28.00;100223.00;;;;4819574;29;20469;-77
2021/10/02 12:04:51;;;;;;;4.20;1.80;;;;;28.30;100224.00;;;;4819533;29;20586;-76
2021/10/02 12:07:21;;;;;;;9.88;1.83;;;;;28.00;100236.00;;;;4819100;29;20108;-75
2021/10/02 12:09:56;;;;;;;15.07;1.90;;;;;27.70;100250.00;;;;4818695;29;20046;-73
2021/10/02 12:12:26;;;;;;;4.40;1.75;;;;;27.50;100245.00;;;;4819519;29;20468;-74
2021/10/02 12:14:57;;;;;;;3.47;1.30;;;;;26.30;100338.00;;;;4818976;29;20069;-75
2021/10/02 12:17:26;;;;;;;6.13;1.85;;;;;26.70;100246.00;;;;4818799;29;20054;-75
2021/10/02 12:19:56;;;;;;;3.65;2.42;;;;;25.30;100215.00;;;;4818484;29;20050;-73
2021/10/02 12:22:29;;;;;;;5.82;1.90;;;;;24.40;100298.00;;;;4818888;29;20058;-74
2021/10/02 12:24:59;;;;;;;4.18;1.52;;;;;25.30;100334.00;;;;4818328;29;20053;-74
2021/10/02 12:27:29;;;;;;;3.33;1.20;;;;;22.80;100388.00;;;;4818704;29;20086;-74
2021/10/02 12:29:58;;;;;;;2.63;0.90;;;;;22.10;100348.00;;;;4819733;29;20508;-73
2021/10/02 12:32:29;;;;;;;3.58;1.30;;;;;23.00;100286.00;;;;4819132;29;20046;-75
2021/10/02 12:35:03;;;;;;;4.05;1.40;;;;;23.60;100324.00;;;;4813967;29;20057;-76
2021/10/02 12:37:35;;;;;;;5.80;1.38;;;;;23.90;100317.00;;;;4816555;29;20410;-75
2021/10/02 12:40:07;;;;;;;4.15;1.20;;;;;24.40;100319.00;;;;4817781;29;20039;-75
2021/10/02 12:42:43;;;;;;;27.67;25.42;;;;;24.40;100313.00;;;;4817892;29;20134;-75
2021/10/02 12:45:19;;;;;;;4.93;1.40;;;;;24.50;100315.00;;;;4817927;29;20053;-74
2021/10/02 12:47:55;;;;;;;5.28;1.45;;;;;24.20;100314.00;;;;4818455;29;20100;-73
2021/10/02 12:50:28;;;;;;;14.68;13.65;;;;;23.60;100296.00;;;;4818358;29;20068;-77
2021/10/02 12:52:59;;;;;;;7.90;1.70;;;;;23.60;100295.00;;;;4818279;29;20117;-76
2021/10/02 12:55:28;;;;;;;5.30;1.73;;;;;23.20;100303.00;;;;4817910;29;20057;-74
2021/10/02 12:57:58;;;;;;;7.97;1.80;;;;;23.00;100302.00;;;;4817592;29;20054;-74
2021/10/02 13:00:30;;;;;;;4.68;1.40;;;;;23.70;100298.00;;;;4817335;29;20060;-75
2021/10/02 13:03:03;;;;;;;8.10;1.98;;;;;23.60;100297.00;;;;4818533;29;20050;-75
2021/10/02 13:05:35;;;;;;;4.63;1.52;;;;;24.10;100300.00;;;;4817598;29;20042;-74
2021/10/02 13:08:13;;;;;;;5.57;1.60;;;;;24.20;100292.00;;;;4817480;29;20058;-74
2021/10/02 13:10:42;;;;;;;4.72;1.30;;;;;24.40;100287.00;;;;4815144;29;20118;-74
2021/10/02 13:13:19;;;;;;;4.88;1.90;;;;;24.20;100302.00;;;;4818289;29;20525;-73
2021/10/02 13:15:51;;;;;;;3.60;1.40;;;;;24.10;100305.00;;;;4801569;29;20046;-75
2021/10/02 13:18:29;;;;;;;1.60;0.63;;;;;23.60;100311.00;;;;4817992;29;20077;-74
2021/10/02 13:21:02;;;;;;;1.95;0.75;;;;;24.00;100326.00;;;;4817674;29;20042;-74
2021/10/02 13:23:32;;;;;;;3.70;1.40;;;;;24.10;100321.00;;;;4817511;29;20438;-73